Main page
METAR-TAF:

METAR-TAF

Airports :

Tromsø Airport. Langnes

Tromsø, Norway

latitude: 69-41N, longitude: 018-55E, elevation: 1 m

Current weather observation

The report was made 24 minutes ago, at 15:20 UTC
Wind 17 kt from the North/Northeast
Temperature 12°C
Humidity 58%
Pressure 1017 hPa
Visibility 10 km or more
no clouds below 1500 m and no cumulonimbus

METAR: ENTC 201520Z 02017KT CAVOK 12/04 Q1017 NOSIG RMK WIND 2600FT 10010KT

Time: 17:44 (15:44 UTC)

Forecast

Forecast valid from 20 at 12 UTC to 21 at 12 UTC
Wind 12 kt from the North/Northeast
Visibility 10 km or more
no clouds below 1500 m and no cumulonimbus

TAF: ENTC 2012/2112 02012KT CAVOK

Weather observations and forecasts of more than 4000 airports (METAR and TAF reports).

The available stations are represented by yellow and red dots on the map.

Hover mouse over dot to see the name of the station.

Then click to see weather observations and forecasts.

To change the map : click on the green buttons with a black cross to zoom in, on the green button with a dash to zoom out, or on the green arrows for adjacent maps.


METAR-TAF: